sensor_id;sensor_type;location;lat;lon;timestamp;temperature;humidity
20590;DHT22;10453;50.810;12.540;2023-07-29T00:00:33;19.20;99.90
20590;DHT22;10453;50.810;12.540;2023-07-29T00:04:52;19.20;99.90
20590;DHT22;10453;50.810;12.540;2023-07-29T00:09:09;19.10;99.90
20590;DHT22;10453;50.810;12.540;2023-07-29T00:13:27;19.00;99.90
20590;DHT22;10453;50.810;12.540;2023-07-29T00:17:45;19.00;99.90
20590;DHT22;10453;50.810;12.540;2023-07-29T00:22:02;19.00;99.90
20590;DHT22;10453;50.810;12.540;2023-07-29T00:26:19;19.00;99.90
20590;DHT22;10453;50.810;12.540;2023-07-29T00:30:39;19.00;99.90
20590;DHT22;10453;50.810;12.540;2023-07-29T00:34:56;18.90;99.90
20590;DHT22;10453;50.810;12.540;2023-07-29T00:39:14;18.80;99.90
20590;DHT22;10453;50.810;12.540;2023-07-29T00:43:31;18.80;99.90
20590;DHT22;10453;50.810;12.540;2023-07-29T00:47:48;18.70;99.90
20590;DHT22;10453;50.810;12.540;2023-07-29T00:52:06;18.70;99.90
20590;DHT22;10453;50.810;12.540;2023-07-29T00:56:23;18.60;99.90
20590;DHT22;10453;50.810;12.540;2023-07-29T01:00:41;18.60;99.90
20590;DHT22;10453;50.810;12.540;2023-07-29T01:05:00;18.50;99.90
20590;DHT22;10453;50.810;12.540;2023-07-29T01:10:25;18.50;99.90
20590;DHT22;10453;50.810;12.540;2023-07-29T01:14:29;18.50;99.90
20590;DHT22;10453;50.810;12.540;2023-07-29T01:18:52;18.40;99.90
20590;DHT22;10453;50.810;12.540;2023-07-29T01:23:15;18.30;99.90
20590;DHT22;10453;50.810;12.540;2023-07-29T01:27:33;18.30;99.90
20590;DHT22;10453;50.810;12.540;2023-07-29T01:31:56;18.40;99.90
20590;DHT22;10453;50.810;12.540;2023-07-29T01:36:28;18.40;99.90
20590;DHT22;10453;50.810;12.540;2023-07-29T01:40:52;18.40;99.90
20590;DHT22;10453;50.810;12.540;2023-07-29T01:45:10;18.30;99.90
20590;DHT22;10453;50.810;12.540;2023-07-29T01:49:27;18.30;99.90
20590;DHT22;10453;50.810;12.540;2023-07-29T01:53:49;18.30;99.90
20590;DHT22;10453;50.810;12.540;2023-07-29T01:58:09;18.50;99.90
20590;DHT22;10453;50.810;12.540;2023-07-29T02:02:29;18.30;99.90
20590;DHT22;10453;50.810;12.540;2023-07-29T02:06:52;18.20;99.90
20590;DHT22;10453;50.810;12.540;2023-07-29T02:11:12;18.30;99.90
20590;DHT22;10453;50.810;12.540;2023-07-29T02:15:29;18.40;99.90
20590;DHT22;10453;50.810;12.540;2023-07-29T02:19:50;18.40;99.90
20590;DHT22;10453;50.810;12.540;2023-07-29T02:24:15;18.40;99.90
20590;DHT22;10453;50.810;12.540;2023-07-29T02:28:38;18.50;99.90
20590;DHT22;10453;50.810;12.540;2023-07-29T02:33:08;18.50;99.90
20590;DHT22;10453;50.810;12.540;2023-07-29T02:37:33;18.60;99.90
20590;DHT22;10453;50.810;12.540;2023-07-29T02:41:57;18.60;99.90
20590;DHT22;10453;50.810;12.540;2023-07-29T02:46:21;18.60;99.90
20590;DHT22;10453;50.810;12.540;2023-07-29T02:50:43;18.70;99.90
20590;DHT22;10453;50.810;12.540;2023-07-29T02:55:00;18.60;99.90
20590;DHT22;10453;50.810;12.540;2023-07-29T03:00:03;18.70;99.90
20590;DHT22;10453;50.810;12.540;2023-07-29T03:04:24;18.70;99.90
20590;DHT22;10453;50.810;12.540;2023-07-29T03:08:42;18.80;99.90
20590;DHT22;10453;50.810;12.540;2023-07-29T03:12:59;18.80;99.90
20590;DHT22;10453;50.810;12.540;2023-07-29T03:17:18;18.90;99.90
20590;DHT22;10453;50.810;12.540;2023-07-29T03:21:38;18.90;99.90
20590;DHT22;10453;50.810;12.540;2023-07-29T03:26:00;18.90;99.90
20590;DHT22;10453;50.810;12.540;2023-07-29T03:30:22;18.90;99.90
20590;DHT22;10453;50.810;12.540;2023-07-29T03:34:56;19.00;99.90
20590;DHT22;10453;50.810;12.540;2023-07-29T03:39:14;19.00;99.90
20590;DHT22;10453;50.810;12.540;2023-07-29T03:43:35;19.10;99.90
20590;DHT22;10453;50.810;12.540;2023-07-29T03:47:56;19.10;99.90
20590;DHT22;10453;50.810;12.540;2023-07-29T03:52:17;19.00;99.90
20590;DHT22;10453;50.810;12.540;2023-07-29T03:56:36;19.00;99.90
20590;DHT22;10453;50.810;12.540;2023-07-29T04:00:57;19.00;99.90
20590;DHT22;10453;50.810;12.540;2023-07-29T04:05:15;19.10;99.90
20590;DHT22;10453;50.810;12.540;2023-07-29T04:09:35;19.10;99.90
20590;DHT22;10453;50.810;12.540;2023-07-29T04:13:52;19.20;99.90
20590;DHT22;10453;50.810;12.540;2023-07-29T04:18:13;19.10;99.90
20590;DHT22;10453;50.810;12.540;2023-07-29T04:22:30;19.10;99.90
20590;DHT22;10453;50.810;12.540;2023-07-29T04:26:49;19.20;99.90
20590;DHT22;10453;50.810;12.540;2023-07-29T04:31:07;19.20;99.90
20590;DHT22;10453;50.810;12.540;2023-07-29T04:35:28;19.20;99.90
20590;DHT22;10453;50.810;12.540;2023-07-29T04:39:48;19.40;99.90
20590;DHT22;10453;50.810;12.540;2023-07-29T04:44:06;19.30;99.90
20590;DHT22;10453;50.810;12.540;2023-07-29T04:48:26;19.50;99.90
20590;DHT22;10453;50.810;12.540;2023-07-29T04:52:50;19.60;99.90
20590;DHT22;10453;50.810;12.540;2023-07-29T04:57:10;19.50;99.90
20590;DHT22;10453;50.810;12.540;2023-07-29T05:01:29;19.60;99.90
20590;DHT22;10453;50.810;12.540;2023-07-29T05:05:47;19.70;99.90
20590;DHT22;10453;50.810;12.540;2023-07-29T05:10:07;19.60;99.90
20590;DHT22;10453;50.810;12.540;2023-07-29T05:14:29;19.50;99.90
20590;DHT22;10453;50.810;12.540;2023-07-29T05:18:46;19.40;99.90
20590;DHT22;10453;50.810;12.540;2023-07-29T05:23:04;19.30;99.90
20590;DHT22;10453;50.810;12.540;2023-07-29T05:27:21;19.30;99.90
20590;DHT22;10453;50.810;12.540;2023-07-29T05:31:39;19.50;99.90
20590;DHT22;10453;50.810;12.540;2023-07-29T05:35:56;19.50;99.90
20590;DHT22;10453;50.810;12.540;2023-07-29T05:40:13;19.90;99.90
20590;DHT22;10453;50.810;12.540;2023-07-29T05:44:31;20.10;99.90
20590;DHT22;10453;50.810;12.540;2023-07-29T05:48:48;20.40;99.90
20590;DHT22;10453;50.810;12.540;2023-07-29T05:53:05;20.70;99.90
20590;DHT22;10453;50.810;12.540;2023-07-29T05:57:23;20.70;99.90
20590;DHT22;10453;50.810;12.540;2023-07-29T06:01:40;20.80;99.90
20590;DHT22;10453;50.810;12.540;2023-07-29T06:05:57;21.20;99.90
20590;DHT22;10453;50.810;12.540;2023-07-29T06:10:15;20.80;99.90
20590;DHT22;10453;50.810;12.540;2023-07-29T06:14:36;20.50;99.90
20590;DHT22;10453;50.810;12.540;2023-07-29T06:18:53;20.50;99.90
20590;DHT22;10453;50.810;12.540;2023-07-29T06:23:10;20.60;99.90
20590;DHT22;10453;50.810;12.540;2023-07-29T06:27:27;20.80;99.90
20590;DHT22;10453;50.810;12.540;2023-07-29T06:31:44;20.90;99.90
20590;DHT22;10453;50.810;12.540;2023-07-29T06:36:02;21.00;99.90
20590;DHT22;10453;50.810;12.540;2023-07-29T06:40:19;21.20;99.90
20590;DHT22;10453;50.810;12.540;2023-07-29T06:44:36;21.20;99.90
20590;DHT22;10453;50.810;12.540;2023-07-29T06:48:54;21.10;99.90
20590;DHT22;10453;50.810;12.540;2023-07-29T06:53:11;20.90;99.90
20590;DHT22;10453;50.810;12.540;2023-07-29T06:57:28;21.10;99.90
20590;DHT22;10453;50.810;12.540;2023-07-29T07:01:46;21.60;99.90
20590;DHT22;10453;50.810;12.540;2023-07-29T07:06:03;21.80;99.90
20590;DHT22;10453;50.810;12.540;2023-07-29T07:10:22;22.00;99.90
20590;DHT22;10453;50.810;12.540;2023-07-29T07:14:39;22.10;99.90
20590;DHT22;10453;50.810;12.540;2023-07-29T07:18:57;22.40;99.90
20590;DHT22;10453;50.810;12.540;2023-07-29T07:23:14;22.30;99.90
20590;DHT22;10453;50.810;12.540;2023-07-29T07:27:32;22.60;99.90
20590;DHT22;10453;50.810;12.540;2023-07-29T07:31:51;22.70;99.90
20590;DHT22;10453;50.810;12.540;2023-07-29T07:36:12;23.00;99.90
20590;DHT22;10453;50.810;12.540;2023-07-29T07:40:30;23.20;99.90
20590;DHT22;10453;50.810;12.540;2023-07-29T07:44:48;23.50;99.90
20590;DHT22;10453;50.810;12.540;2023-07-29T07:49:05;23.60;99.90
20590;DHT22;10453;50.810;12.540;2023-07-29T07:53:22;23.40;99.90
20590;DHT22;10453;50.810;12.540;2023-07-29T07:57:39;23.40;99.90
20590;DHT22;10453;50.810;12.540;2023-07-29T08:01:56;23.30;99.90
20590;DHT22;10453;50.810;12.540;2023-07-29T08:06:14;23.00;99.90
20590;DHT22;10453;50.810;12.540;2023-07-29T08:10:31;22.70;99.90
20590;DHT22;10453;50.810;12.540;2023-07-29T08:14:48;22.70;99.90
20590;DHT22;10453;50.810;12.540;2023-07-29T08:19:06;23.00;99.90
20590;DHT22;10453;50.810;12.540;2023-07-29T08:23:25;23.00;99.90
20590;DHT22;10453;50.810;12.540;2023-07-29T08:27:42;23.50;99.90
20590;DHT22;10453;50.810;12.540;2023-07-29T08:31:59;23.20;99.90
20590;DHT22;10453;50.810;12.540;2023-07-29T08:36:17;23.20;99.90
20590;DHT22;10453;50.810;12.540;2023-07-29T08:40:35;22.90;99.90
20590;DHT22;10453;50.810;12.540;2023-07-29T08:44:54;22.60;99.90
20590;DHT22;10453;50.810;12.540;2023-07-29T08:49:12;22.40;99.90
20590;DHT22;10453;50.810;12.540;2023-07-29T08:53:37;22.60;99.90
20590;DHT22;10453;50.810;12.540;2023-07-29T08:57:55;22.50;99.90
20590;DHT22;10453;50.810;12.540;2023-07-29T09:02:13;22.90;99.90
20590;DHT22;10453;50.810;12.540;2023-07-29T09:06:31;23.20;99.90
20590;DHT22;10453;50.810;12.540;2023-07-29T09:10:48;23.50;99.90
20590;DHT22;10453;50.810;12.540;2023-07-29T09:15:06;23.90;99.90
20590;DHT22;10453;50.810;12.540;2023-07-29T09:19:26;23.40;99.90
20590;DHT22;10453;50.810;12.540;2023-07-29T09:23:44;23.80;99.90
20590;DHT22;10453;50.810;12.540;2023-07-29T09:28:08;24.10;99.90
20590;DHT22;10453;50.810;12.540;2023-07-29T09:32:26;23.60;99.90
20590;DHT22;10453;50.810;12.540;2023-07-29T09:36:43;23.30;99.90
20590;DHT22;10453;50.810;12.540;2023-07-29T09:41:01;23.10;99.90
20590;DHT22;10453;50.810;12.540;2023-07-29T09:45:26;22.80;99.90
20590;DHT22;10453;50.810;12.540;2023-07-29T09:49:44;22.50;99.90
20590;DHT22;10453;50.810;12.540;2023-07-29T09:54:03;22.70;99.90
20590;DHT22;10453;50.810;12.540;2023-07-29T09:58:26;22.80;99.90
20590;DHT22;10453;50.810;12.540;2023-07-29T10:02:44;22.50;99.90
20590;DHT22;10453;50.810;12.540;2023-07-29T10:07:02;22.30;99.90
20590;DHT22;10453;50.810;12.540;2023-07-29T10:11:21;22.80;99.90
20590;DHT22;10453;50.810;12.540;2023-07-29T10:15:40;23.50;99.90
20590;DHT22;10453;50.810;12.540;2023-07-29T10:19:57;23.40;99.90
20590;DHT22;10453;50.810;12.540;2023-07-29T10:24:18;23.20;99.90
20590;DHT22;10453;50.810;12.540;2023-07-29T10:28:39;23.50;99.90
20590;DHT22;10453;50.810;12.540;2023-07-29T10:33:04;23.50;99.90
20590;DHT22;10453;50.810;12.540;2023-07-29T10:37:23;23.60;99.90
20590;DHT22;10453;50.810;12.540;2023-07-29T10:42:00;23.80;99.90
20590;DHT22;10453;50.810;12.540;2023-07-29T10:46:22;23.40;99.90
20590;DHT22;10453;50.810;12.540;2023-07-29T10:50:40;23.00;99.90
20590;DHT22;10453;50.810;12.540;2023-07-29T10:54:57;22.90;99.90
20590;DHT22;10453;50.810;12.540;2023-07-29T11:03:36;22.40;99.90
20590;DHT22;10453;50.810;12.540;2023-07-29T11:07:53;22.30;99.90
20590;DHT22;10453;50.810;12.540;2023-07-29T11:17:01;22.60;99.90
20590;DHT22;10453;50.810;12.540;2023-07-29T11:21:18;22.60;99.90
20590;DHT22;10453;50.810;12.540;2023-07-29T11:25:35;22.50;99.90
20590;DHT22;10453;50.810;12.540;2023-07-29T11:30:00;22.40;99.90
20590;DHT22;10453;50.810;12.540;2023-07-29T11:34:33;22.70;99.90
20590;DHT22;10453;50.810;12.540;2023-07-29T11:38:50;22.70;99.90
20590;DHT22;10453;50.810;12.540;2023-07-29T11:43:08;22.10;99.90
20590;DHT22;10453;50.810;12.540;2023-07-29T11:47:25;21.60;99.90
20590;DHT22;10453;50.810;12.540;2023-07-29T11:51:43;21.20;99.90
20590;DHT22;10453;50.810;12.540;2023-07-29T11:56:01;21.10;99.90
20590;DHT22;10453;50.810;12.540;2023-07-29T12:00:18;20.80;99.90
20590;DHT22;10453;50.810;12.540;2023-07-29T12:04:36;20.90;99.90
20590;DHT22;10453;50.810;12.540;2023-07-29T12:08:54;21.10;99.90
20590;DHT22;10453;50.810;12.540;2023-07-29T12:13:12;21.40;99.90
20590;DHT22;10453;50.810;12.540;2023-07-29T12:17:29;22.20;99.90
20590;DHT22;10453;50.810;12.540;2023-07-29T12:21:47;23.20;99.90
20590;DHT22;10453;50.810;12.540;2023-07-29T12:26:04;24.30;99.90
20590;DHT22;10453;50.810;12.540;2023-07-29T12:30:22;23.10;99.90
20590;DHT22;10453;50.810;12.540;2023-07-29T12:34:40;24.80;99.90
20590;DHT22;10453;50.810;12.540;2023-07-29T12:38:59;26.20;99.90
20590;DHT22;10453;50.810;12.540;2023-07-29T12:43:16;27.50;99.90
20590;DHT22;10453;50.810;12.540;2023-07-29T12:47:34;27.30;99.90
20590;DHT22;10453;50.810;12.540;2023-07-29T12:51:52;28.30;99.90
20590;DHT22;10453;50.810;12.540;2023-07-29T12:56:10;28.00;99.90
20590;DHT22;10453;50.810;12.540;2023-07-29T13:00:27;28.60;99.90
20590;DHT22;10453;50.810;12.540;2023-07-29T13:04:45;26.60;99.90
20590;DHT22;10453;50.810;12.540;2023-07-29T13:09:03;27.40;99.90
20590;DHT22;10453;50.810;12.540;2023-07-29T13:13:20;28.10;99.90
20590;DHT22;10453;50.810;12.540;2023-07-29T13:17:38;27.70;99.90
20590;DHT22;10453;50.810;12.540;2023-07-29T13:21:56;29.10;99.90
20590;DHT22;10453;50.810;12.540;2023-07-29T13:26:14;28.00;99.90
20590;DHT22;10453;50.810;12.540;2023-07-29T13:30:31;27.80;99.90
20590;DHT22;10453;50.810;12.540;2023-07-29T13:34:48;28.30;99.90
20590;DHT22;10453;50.810;12.540;2023-07-29T13:39:05;29.80;99.90
20590;DHT22;10453;50.810;12.540;2023-07-29T13:43:23;28.40;99.90
20590;DHT22;10453;50.810;12.540;2023-07-29T13:47:40;28.60;99.90
20590;DHT22;10453;50.810;12.540;2023-07-29T13:51:57;28.70;99.90
20590;DHT22;10453;50.810;12.540;2023-07-29T13:56:15;29.80;99.90
20590;DHT22;10453;50.810;12.540;2023-07-29T14:00:32;29.70;94.90
20590;DHT22;10453;50.810;12.540;2023-07-29T14:04:50;28.60;98.90
20590;DHT22;10453;50.810;12.540;2023-07-29T14:09:07;28.20;97.00
20590;DHT22;10453;50.810;12.540;2023-07-29T14:13:24;28.00;99.00
20590;DHT22;10453;50.810;12.540;2023-07-29T14:17:42;28.00;99.90
20590;DHT22;10453;50.810;12.540;2023-07-29T14:22:00;29.50;98.00
20590;DHT22;10453;50.810;12.540;2023-07-29T14:26:17;29.10;95.60
20590;DHT22;10453;50.810;12.540;2023-07-29T14:30:35;29.80;96.20
20590;DHT22;10453;50.810;12.540;2023-07-29T14:34:52;28.80;95.90
20590;DHT22;10453;50.810;12.540;2023-07-29T14:39:10;27.80;96.30
20590;DHT22;10453;50.810;12.540;2023-07-29T14:43:27;28.40;97.10
20590;DHT22;10453;50.810;12.540;2023-07-29T14:47:44;29.20;95.30
20590;DHT22;10453;50.810;12.540;2023-07-29T14:52:02;29.00;95.50
20590;DHT22;10453;50.810;12.540;2023-07-29T14:56:19;29.70;94.20
20590;DHT22;10453;50.810;12.540;2023-07-29T15:00:40;26.90;97.10
20590;DHT22;10453;50.810;12.540;2023-07-29T15:04:57;26.00;99.90
20590;DHT22;10453;50.810;12.540;2023-07-29T15:09:14;25.70;99.90
20590;DHT22;10453;50.810;12.540;2023-07-29T15:13:31;25.50;99.90
20590;DHT22;10453;50.810;12.540;2023-07-29T15:17:49;25.50;99.90
20590;DHT22;10453;50.810;12.540;2023-07-29T15:22:06;25.00;99.90
20590;DHT22;10453;50.810;12.540;2023-07-29T15:26:24;24.70;99.90
20590;DHT22;10453;50.810;12.540;2023-07-29T15:30:41;24.70;99.90
20590;DHT22;10453;50.810;12.540;2023-07-29T15:35:00;24.70;99.90
20590;DHT22;10453;50.810;12.540;2023-07-29T15:39:17;24.50;99.90
20590;DHT22;10453;50.810;12.540;2023-07-29T15:43:34;24.60;99.90
20590;DHT22;10453;50.810;12.540;2023-07-29T15:47:52;24.40;99.90
20590;DHT22;10453;50.810;12.540;2023-07-29T15:52:11;24.40;99.90
20590;DHT22;10453;50.810;12.540;2023-07-29T15:56:31;24.10;99.90
20590;DHT22;10453;50.810;12.540;2023-07-29T16:00:53;24.00;99.90
20590;DHT22;10453;50.810;12.540;2023-07-29T16:05:10;22.60;99.90
20590;DHT22;10453;50.810;12.540;2023-07-29T16:09:28;20.30;99.90
20590;DHT22;10453;50.810;12.540;2023-07-29T16:13:45;19.00;99.90
20590;DHT22;10453;50.810;12.540;2023-07-29T16:18:03;18.40;99.90
20590;DHT22;10453;50.810;12.540;2023-07-29T16:22:21;18.40;99.90
20590;DHT22;10453;50.810;12.540;2023-07-29T16:26:38;18.40;99.90
20590;DHT22;10453;50.810;12.540;2023-07-29T16:30:56;18.30;99.90
20590;DHT22;10453;50.810;12.540;2023-07-29T16:35:13;18.40;99.90
20590;DHT22;10453;50.810;12.540;2023-07-29T16:39:30;18.40;99.90
20590;DHT22;10453;50.810;12.540;2023-07-29T16:43:48;18.30;99.90
20590;DHT22;10453;50.810;12.540;2023-07-29T16:48:05;18.50;99.90
20590;DHT22;10453;50.810;12.540;2023-07-29T16:52:23;18.80;99.90
20590;DHT22;10453;50.810;12.540;2023-07-29T16:56:40;18.50;99.90
20590;DHT22;10453;50.810;12.540;2023-07-29T17:00:57;18.10;99.90
20590;DHT22;10453;50.810;12.540;2023-07-29T17:05:15;18.30;99.90
20590;DHT22;10453;50.810;12.540;2023-07-29T17:09:33;18.40;99.90
20590;DHT22;10453;50.810;12.540;2023-07-29T17:13:51;18.50;99.90
20590;DHT22;10453;50.810;12.540;2023-07-29T17:18:09;18.40;99.90
20590;DHT22;10453;50.810;12.540;2023-07-29T17:22:26;18.50;99.90
20590;DHT22;10453;50.810;12.540;2023-07-29T17:26:44;18.50;99.90
20590;DHT22;10453;50.810;12.540;2023-07-29T17:31:01;18.50;99.90
20590;DHT22;10453;50.810;12.540;2023-07-29T17:35:22;18.50;99.90
20590;DHT22;10453;50.810;12.540;2023-07-29T17:39:43;18.40;99.90
20590;DHT22;10453;50.810;12.540;2023-07-29T17:44:00;18.40;99.90
20590;DHT22;10453;50.810;12.540;2023-07-29T17:48:18;18.40;99.90
20590;DHT22;10453;50.810;12.540;2023-07-29T17:52:36;18.40;99.90
20590;DHT22;10453;50.810;12.540;2023-07-29T17:56:53;18.40;99.90
20590;DHT22;10453;50.810;12.540;2023-07-29T18:01:11;18.40;99.90
20590;DHT22;10453;50.810;12.540;2023-07-29T18:05:28;18.30;99.90
20590;DHT22;10453;50.810;12.540;2023-07-29T18:09:46;18.30;99.90
20590;DHT22;10453;50.810;12.540;2023-07-29T18:14:03;18.20;99.90
20590;DHT22;10453;50.810;12.540;2023-07-29T18:18:20;18.40;99.90
20590;DHT22;10453;50.810;12.540;2023-07-29T18:22:38;18.50;99.90
20590;DHT22;10453;50.810;12.540;2023-07-29T18:26:55;18.60;99.90
20590;DHT22;10453;50.810;12.540;2023-07-29T18:31:12;18.40;99.90
20590;DHT22;10453;50.810;12.540;2023-07-29T18:35:30;18.30;99.90
20590;DHT22;10453;50.810;12.540;2023-07-29T18:39:50;18.30;99.90
20590;DHT22;10453;50.810;12.540;2023-07-29T18:44:08;18.30;99.90
20590;DHT22;10453;50.810;12.540;2023-07-29T18:48:25;18.20;99.90
20590;DHT22;10453;50.810;12.540;2023-07-29T18:52:43;18.20;99.90
20590;DHT22;10453;50.810;12.540;2023-07-29T18:57:01;18.10;99.90
20590;DHT22;10453;50.810;12.540;2023-07-29T19:01:19;17.90;99.90
20590;DHT22;10453;50.810;12.540;2023-07-29T19:05:39;17.80;99.90
20590;DHT22;10453;50.810;12.540;2023-07-29T19:09:56;17.70;99.90
20590;DHT22;10453;50.810;12.540;2023-07-29T19:14:15;17.60;99.90
20590;DHT22;10453;50.810;12.540;2023-07-29T19:18:33;17.40;99.90
20590;DHT22;10453;50.810;12.540;2023-07-29T19:22:50;17.30;99.90
20590;DHT22;10453;50.810;12.540;2023-07-29T19:27:08;17.20;99.90
20590;DHT22;10453;50.810;12.540;2023-07-29T19:31:27;17.00;99.90
20590;DHT22;10453;50.810;12.540;2023-07-29T19:35:44;16.90;99.90
20590;DHT22;10453;50.810;12.540;2023-07-29T19:40:02;16.80;99.90
20590;DHT22;10453;50.810;12.540;2023-07-29T19:44:19;16.80;99.90
20590;DHT22;10453;50.810;12.540;2023-07-29T19:48:39;16.70;99.90
20590;DHT22;10453;50.810;12.540;2023-07-29T19:52:57;16.70;99.90
20590;DHT22;10453;50.810;12.540;2023-07-29T19:57:14;16.60;99.90
20590;DHT22;10453;50.810;12.540;2023-07-29T20:01:32;16.50;99.90
20590;DHT22;10453;50.810;12.540;2023-07-29T20:05:49;16.50;99.90
20590;DHT22;10453;50.810;12.540;2023-07-29T20:10:07;16.40;99.90
20590;DHT22;10453;50.810;12.540;2023-07-29T20:14:25;16.30;99.90
20590;DHT22;10453;50.810;12.540;2023-07-29T20:18:42;16.30;99.90
20590;DHT22;10453;50.810;12.540;2023-07-29T20:23:00;16.20;99.90
20590;DHT22;10453;50.810;12.540;2023-07-29T20:27:18;16.30;99.90
20590;DHT22;10453;50.810;12.540;2023-07-29T20:31:35;16.40;99.90
20590;DHT22;10453;50.810;12.540;2023-07-29T20:40:11;16.70;99.90
20590;DHT22;10453;50.810;12.540;2023-07-29T20:44:29;16.80;99.90
20590;DHT22;10453;50.810;12.540;2023-07-29T20:48:48;16.70;99.90
20590;DHT22;10453;50.810;12.540;2023-07-29T20:53:06;16.70;99.90
20590;DHT22;10453;50.810;12.540;2023-07-29T20:57:23;16.80;99.90
20590;DHT22;10453;50.810;12.540;2023-07-29T21:01:41;16.70;99.90
20590;DHT22;10453;50.810;12.540;2023-07-29T21:05:59;16.60;99.90
20590;DHT22;10453;50.810;12.540;2023-07-29T21:10:17;16.80;99.90
20590;DHT22;10453;50.810;12.540;2023-07-29T21:14:34;16.70;99.90
20590;DHT22;10453;50.810;12.540;2023-07-29T21:18:51;16.80;99.90
20590;DHT22;10453;50.810;12.540;2023-07-29T21:23:09;16.70;99.90
20590;DHT22;10453;50.810;12.540;2023-07-29T21:27:26;16.40;99.90
20590;DHT22;10453;50.810;12.540;2023-07-29T21:31:44;16.30;99.90
20590;DHT22;10453;50.810;12.540;2023-07-29T21:36:01;16.10;99.90
20590;DHT22;10453;50.810;12.540;2023-07-29T21:40:19;16.00;99.90
20590;DHT22;10453;50.810;12.540;2023-07-29T21:44:36;16.00;99.90
20590;DHT22;10453;50.810;12.540;2023-07-29T21:48:53;16.10;99.90
20590;DHT22;10453;50.810;12.540;2023-07-29T21:53:10;16.20;99.90
20590;DHT22;10453;50.810;12.540;2023-07-29T21:57:28;16.10;99.90
20590;DHT22;10453;50.810;12.540;2023-07-29T22:01:45;16.00;99.90
20590;DHT22;10453;50.810;12.540;2023-07-29T22:06:03;16.00;99.90
20590;DHT22;10453;50.810;12.540;2023-07-29T22:10:20;16.20;99.90
20590;DHT22;10453;50.810;12.540;2023-07-29T22:14:38;16.20;99.90
20590;DHT22;10453;50.810;12.540;2023-07-29T22:18:55;16.30;99.90
20590;DHT22;10453;50.810;12.540;2023-07-29T22:23:12;16.10;99.90
20590;DHT22;10453;50.810;12.540;2023-07-29T22:27:29;15.90;99.90
20590;DHT22;10453;50.810;12.540;2023-07-29T22:31:46;15.70;99.90
20590;DHT22;10453;50.810;12.540;2023-07-29T22:36:04;15.60;99.90
20590;DHT22;10453;50.810;12.540;2023-07-29T22:40:21;15.50;99.90
20590;DHT22;10453;50.810;12.540;2023-07-29T22:44:39;15.50;99.90
20590;DHT22;10453;50.810;12.540;2023-07-29T22:48:56;15.50;99.90
20590;DHT22;10453;50.810;12.540;2023-07-29T22:53:14;15.50;99.90
20590;DHT22;10453;50.810;12.540;2023-07-29T22:57:32;15.40;99.90
20590;DHT22;10453;50.810;12.540;2023-07-29T23:01:49;15.40;99.90
20590;DHT22;10453;50.810;12.540;2023-07-29T23:06:06;15.50;99.90
20590;DHT22;10453;50.810;12.540;2023-07-29T23:10:24;15.60;99.90
20590;DHT22;10453;50.810;12.540;2023-07-29T23:14:41;15.70;99.90
20590;DHT22;10453;50.810;12.540;2023-07-29T23:19:00;15.70;99.90
20590;DHT22;10453;50.810;12.540;2023-07-29T23:23:18;15.60;99.90
20590;DHT22;10453;50.810;12.540;2023-07-29T23:27:35;15.50;99.90
20590;DHT22;10453;50.810;12.540;2023-07-29T23:31:52;15.60;99.90
20590;DHT22;10453;50.810;12.540;2023-07-29T23:36:11;15.70;99.90
20590;DHT22;10453;50.810;12.540;2023-07-29T23:40:29;15.80;99.90
20590;DHT22;10453;50.810;12.540;2023-07-29T23:44:46;15.80;99.90
20590;DHT22;10453;50.810;12.540;2023-07-29T23:49:03;16.00;99.90
20590;DHT22;10453;50.810;12.540;2023-07-29T23:53:21;16.00;99.90
20590;DHT22;10453;50.810;12.540;2023-07-29T23:57:38;16.10;99.90
